Time;durP1;ratioP1;P1;durP2;ratioP2;P2;SDS_P1;SDS_P2;PMS_P1;PMS_P2;Temp;Humidity;BMP_temperature;BMP_pressure;BME280_temperature;BME280_humidity;BME280_pressure;Samples;Min_cycle;Max_cycle;Signal;HPM_P1;HPM_P2
2022/01/13 00:00:11;;;;;;;43.63;12.60;;;;;;;;;;10505072;28;20047;-75
2022/01/13 00:05:18;;;;;;;42.33;12.23;;;;;;;;;;10506596;28;20032;-75
2022/01/13 00:10:20;;;;;;;42.53;12.87;;;;;;;;;;10504683;28;20051;-75
2022/01/13 00:15:27;;;;;;;42.70;12.40;;;;;;;;;;10512079;28;20048;-76
2022/01/13 00:25:56;;;;;;;46.20;11.47;;;;;;;;;;10502317;28;20044;-75
2022/01/13 00:30:59;;;;;;;38.17;12.23;;;;;;;;;;10509063;28;20112;-75
2022/01/13 00:36:04;;;;;;;51.28;13.65;;;;;;;;;;10505421;28;20025;-75
2022/01/13 00:41:08;;;;;;;54.13;13.80;;;;;;;;;;10508628;28;20385;-74
2022/01/13 00:46:18;;;;;;;51.37;12.83;;;;;;;;;;10516391;28;20029;-73
2022/01/13 00:51:24;;;;;;;50.63;13.23;;;;;;;;;;10514194;28;20055;-75
2022/01/13 00:56:27;;;;;;;16.50;4.37;;;;;;;;;;10516186;28;20036;-74
2022/01/13 01:01:30;;;;;;;18.53;6.50;;;;;;;;;;10515896;28;20532;-75
2022/01/13 01:06:35;;;;;;;43.15;12.98;;;;;;;;;;10537786;28;20046;-75
2022/01/13 01:11:38;;;;;;;8.67;4.37;;;;;;;;;;10514809;28;20084;-75
2022/01/13 01:16:41;;;;;;;52.00;13.27;;;;;;;;;;10514752;28;20123;-74
2022/01/13 01:27:16;;;;;;;44.13;11.13;;;;;;;;;;10513189;28;20111;-75
2022/01/13 01:32:20;;;;;;;8.50;3.63;;;;;;;;;;10513830;28;20040;-73
2022/01/13 01:37:26;;;;;;;45.75;14.40;;;;;;;;;;10514325;28;20045;-77
2022/01/13 01:42:29;;;;;;;32.43;9.53;;;;;;;;;;10511163;28;20063;-75
2022/01/13 01:47:33;;;;;;;40.13;12.83;;;;;;;;;;10514562;28;20041;-76
2022/01/13 01:52:38;;;;;;;20.13;5.60;;;;;;;;;;10506115;28;20062;-76
2022/01/13 01:57:41;;;;;;;29.90;9.37;;;;;;;;;;10519277;28;20060;-75
2022/01/13 02:02:44;;;;;;;33.13;8.87;;;;;;;;;;10512093;28;20028;-75
2022/01/13 02:07:49;;;;;;;32.80;8.40;;;;;;;;;;10510815;28;20036;-74
2022/01/13 02:13:00;;;;;;;44.40;10.63;;;;;;;;;;10510723;28;20032;-74
2022/01/13 02:18:05;;;;;;;39.90;12.23;;;;;;;;;;10516130;28;20096;-75
2022/01/13 02:23:10;;;;;;;43.17;13.20;;;;;;;;;;10516557;28;20392;-75
2022/01/13 02:28:13;;;;;;;41.07;12.70;;;;;;;;;;10514038;28;20040;-74
2022/01/13 02:33:16;;;;;;;46.80;11.43;;;;;;;;;;10515272;28;20029;-76
2022/01/13 02:38:21;;;;;;;22.10;6.50;;;;;;;;;;10511435;28;20130;-76
2022/01/13 02:43:25;;;;;;;25.50;7.60;;;;;;;;;;10515788;28;20127;-74
2022/01/13 02:48:30;;;;;;;47.13;13.52;;;;;;;;;;10506093;28;20032;-74
2022/01/13 02:53:35;;;;;;;42.30;11.57;;;;;;;;;;10512035;28;20028;-74
2022/01/13 02:58:38;;;;;;;41.22;11.18;;;;;;;;;;10507169;28;20102;-74
2022/01/13 03:03:41;;;;;;;45.83;11.13;;;;;;;;;;10508306;28;20036;-74
2022/01/13 03:08:46;;;;;;;46.45;12.63;;;;;;;;;;10508537;28;20119;-75
2022/01/13 03:13:49;;;;;;;45.43;12.10;;;;;;;;;;10510905;28;20118;-75
2022/01/13 03:18:52;;;;;;;34.13;10.10;;;;;;;;;;10508943;28;20036;-75
2022/01/13 03:23:56;;;;;;;45.10;12.27;;;;;;;;;;10506891;28;20032;-75
2022/01/13 03:29:15;;;;;;;40.47;12.27;;;;;;;;;;10513944;28;20036;-75
2022/01/13 03:34:18;;;;;;;50.03;11.90;;;;;;;;;;10511306;28;20025;-76
2022/01/13 03:39:22;;;;;;;38.17;12.57;;;;;;;;;;10508544;28;20139;-74
2022/01/13 03:44:28;;;;;;;;;;;;;;;;;;10507223;28;20032;-74
2022/01/13 03:49:31;;;;;;;33.90;10.60;;;;;;;;;;10509343;28;20035;-75
2022/01/13 03:55:01;;;;;;;47.40;12.20;;;;;;;;;;10509323;28;20050;-74
2022/01/13 04:00:40;;;;;;;43.50;11.67;;;;;;;;;;10508635;28;20478;-73
2022/01/13 04:06:04;;;;;;;36.13;9.40;;;;;;;;;;10509212;28;20123;-75
2022/01/13 04:11:15;;;;;;;49.00;13.73;;;;;;;;;;10510276;28;20028;-75
2022/01/13 04:16:18;;;;;;;33.20;10.63;;;;;;;;;;10509205;28;20377;-73
2022/01/13 04:21:23;;;;;;;37.22;9.00;;;;;;;;;;10505915;28;20040;-74
2022/01/13 04:26:29;;;;;;;47.87;12.57;;;;;;;;;;10502146;28;20044;-74
2022/01/13 04:31:32;;;;;;;34.57;10.50;;;;;;;;;;10511477;28;20127;-73
2022/01/13 04:36:37;;;;;;;44.57;11.77;;;;;;;;;;10503001;28;20040;-74
2022/01/13 04:41:40;;;;;;;;;;;;;;;;;;10501598;28;20056;-74
2022/01/13 04:46:43;;;;;;;41.80;11.47;;;;;;;;;;10501065;28;20008;-74
2022/01/13 04:51:49;;;;;;;45.07;12.27;;;;;;;;;;10506894;28;20046;-75
2022/01/13 04:57:07;;;;;;;13.30;4.87;;;;;;;;;;10512234;28;20109;-75
2022/01/13 05:02:10;;;;;;;45.23;12.07;;;;;;;;;;10504901;28;20036;-73
2022/01/13 05:07:15;;;;;;;30.93;10.83;;;;;;;;;;10509677;28;20072;-74
2022/01/13 05:12:18;;;;;;;;;;;;;;;;;;10510887;28;20481;-75
2022/01/13 05:17:46;;;;;;;36.90;10.97;;;;;;;;;;10519887;28;19949;-74
2022/01/13 05:22:49;;;;;;;43.27;12.17;;;;;;;;;;10501086;28;20078;-73
2022/01/13 05:27:52;;;;;;;33.70;10.73;;;;;;;;;;10508435;28;20036;-74
2022/01/13 05:32:56;;;;;;;35.70;11.17;;;;;;;;;;10509625;28;20424;-74
2022/01/13 05:38:00;;;;;;;19.33;6.38;;;;;;;;;;10510556;28;20040;-74
2022/01/13 05:43:04;;;;;;;34.10;9.70;;;;;;;;;;10510702;28;20075;-74
2022/01/13 05:48:13;;;;;;;42.50;12.13;;;;;;;;;;10508272;28;20078;-77
2022/01/13 05:53:17;;;;;;;48.70;11.27;;;;;;;;;;10506919;28;20520;-75
2022/01/13 05:58:20;;;;;;;30.97;7.50;;;;;;;;;;10507164;28;20063;-74
2022/01/13 06:03:23;;;;;;;33.73;11.53;;;;;;;;;;10516424;28;20083;-74
2022/01/13 06:08:27;;;;;;;44.13;13.00;;;;;;;;;;10505070;28;20047;-74
2022/01/13 06:13:30;;;;;;;25.90;8.63;;;;;;;;;;10509652;28;20135;-75
2022/01/13 06:18:33;;;;;;;38.20;10.23;;;;;;;;;;10510462;28;20039;-75
2022/01/13 06:23:37;;;;;;;40.17;10.93;;;;;;;;;;10508372;28;20186;-75
2022/01/13 06:28:40;;;;;;;14.50;6.18;;;;;;;;;;10508354;28;20036;-75
2022/01/13 06:33:43;;;;;;;18.50;6.63;;;;;;;;;;10512384;28;20064;-75
2022/01/13 06:38:51;;;;;;;31.43;9.97;;;;;;;;;;10508275;28;20041;-74
2022/01/13 06:43:54;;;;;;;37.40;8.83;;;;;;;;;;10512339;28;20032;-74
2022/01/13 06:48:57;;;;;;;26.20;8.43;;;;;;;;;;10511980;28;20085;-74
2022/01/13 06:54:01;;;;;;;30.90;9.87;;;;;;;;;;10514010;28;20033;-74
2022/01/13 06:59:09;;;;;;;;;;;;;;;;;;10508135;28;20036;-75
2022/01/13 07:04:14;;;;;;;20.97;6.47;;;;;;;;;;10504660;28;19929;-75
2022/01/13 07:09:17;;;;;;;;;;;;;;;;;;10507824;28;20029;-74
2022/01/13 07:14:21;;;;;;;40.77;11.63;;;;;;;;;;10511265;28;19920;-74
2022/01/13 07:19:24;;;;;;;29.93;9.17;;;;;;;;;;10496436;28;20058;-72
2022/01/13 07:24:27;;;;;;;16.77;4.70;;;;;;;;;;10507649;28;20032;-73
2022/01/13 07:29:31;;;;;;;43.80;11.97;;;;;;;;;;10505744;28;20063;-74
2022/01/13 07:34:34;;;;;;;31.13;8.30;;;;;;;;;;10509539;28;20032;-73
2022/01/13 07:39:38;;;;;;;37.40;11.43;;;;;;;;;;10500538;28;20042;-74
2022/01/13 07:44:43;;;;;;;15.33;5.73;;;;;;;;;;10504785;28;20068;-72
2022/01/13 07:49:46;;;;;;;;;;;;;;;;;;10498985;28;20037;-73
2022/01/13 07:54:49;;;;;;;2.70;1.60;;;;;;;;;;10509158;28;20414;-73
2022/01/13 07:59:53;;;;;;;61.20;15.90;;;;;;;;;;10510501;28;20334;-73
2022/01/13 08:05:02;;;;;;;39.57;11.03;;;;;;;;;;10414503;22;20073;-71
2022/01/13 08:10:05;;;;;;;36.87;9.83;;;;;;;;;;10372956;28;20049;-68
2022/01/13 08:15:13;;;;;;;43.70;11.47;;;;;;;;;;10373567;28;20049;-70
2022/01/13 08:20:16;;;;;;;31.30;8.43;;;;;;;;;;10369274;28;20045;-71
2022/01/13 08:25:19;;;;;;;37.40;10.33;;;;;;;;;;10370200;28;20132;-68
2022/01/13 08:30:24;;;;;;;40.87;10.80;;;;;;;;;;10374009;28;20041;-70
2022/01/13 08:35:27;;;;;;;37.93;9.87;;;;;;;;;;10374726;28;20030;-70
2022/01/13 08:40:32;;;;;;;41.37;12.77;;;;;;;;;;10371316;28;20069;-69
2022/01/13 08:45:36;;;;;;;35.50;11.90;;;;;;;;;;10371909;28;20052;-71
2022/01/13 08:50:39;;;;;;;15.83;5.23;;;;;;;;;;10373245;28;20049;-70
2022/01/13 08:55:42;;;;;;;43.17;11.90;;;;;;;;;;10369327;28;20060;-70
2022/01/13 09:00:46;;;;;;;39.90;11.50;;;;;;;;;;10366010;28;20037;-70
2022/01/13 09:05:50;;;;;;;40.23;12.83;;;;;;;;;;10376884;28;20132;-70
2022/01/13 09:10:52;;;;;;;45.13;13.10;;;;;;;;;;10379087;28;20052;-68
2022/01/13 09:15:59;;;;;;;75.10;15.27;;;;;;;;;;10372980;28;20132;-70
2022/01/13 09:21:02;;;;;;;40.67;13.65;;;;;;;;;;10373334;28;20460;-69
2022/01/13 09:26:05;;;;;;;42.85;14.65;;;;;;;;;;10366641;28;20038;-68
2022/01/13 09:31:10;;;;;;;43.27;14.87;;;;;;;;;;10389890;28;20128;-68
2022/01/13 09:36:13;;;;;;;42.05;13.75;;;;;;;;;;10408309;28;20399;-68
2022/01/13 09:41:16;;;;;;;50.08;16.27;;;;;;;;;;10383944;28;20033;-69
2022/01/13 09:46:20;;;;;;;44.40;15.60;;;;;;;;;;10364608;28;20046;-71
2022/01/13 09:51:24;;;;;;;42.92;14.93;;;;;;;;;;10375482;28;20041;-69
2022/01/13 09:56:26;;;;;;;41.60;13.82;;;;;;;;;;10374102;28;20069;-68
2022/01/13 10:01:31;;;;;;;46.47;15.43;;;;;;;;;;10373055;28;20132;-69
2022/01/13 10:06:41;;;;;;;39.72;14.98;;;;;;;;;;10379370;28;20413;-69
2022/01/13 10:11:53;;;;;;;43.05;16.73;;;;;;;;;;10376768;28;20475;-68
2022/01/13 10:16:58;;;;;;;44.72;16.48;;;;;;;;;;10375976;28;20033;-69
2022/01/13 10:22:02;;;;;;;37.70;15.80;;;;;;;;;;10366730;28;20049;-68
2022/01/13 10:27:07;;;;;;;45.28;17.23;;;;;;;;;;10377471;28;20041;-69
2022/01/13 10:32:12;;;;;;;40.35;17.15;;;;;;;;;;10380381;28;20060;-69
2022/01/13 10:37:17;;;;;;;42.05;18.15;;;;;;;;;;10368671;28;20128;-71
2022/01/13 10:47:59;;;;;;;38.83;17.50;;;;;;;;;;10373272;28;20041;-70
2022/01/13 10:53:04;;;;;;;40.10;17.85;;;;;;;;;;10373168;28;20057;-70
2022/01/13 10:58:08;;;;;;;37.40;18.10;;;;;;;;;;10379076;28;20064;-70
2022/01/13 11:03:13;;;;;;;37.70;16.92;;;;;;;;;;10378433;28;20956;-71
2022/01/13 11:08:21;;;;;;;37.58;16.52;;;;;;;;;;10381611;28;20046;-70
2022/01/13 11:13:24;;;;;;;37.33;17.33;;;;;;;;;;10377808;28;20049;-70
2022/01/13 11:18:30;;;;;;;35.38;17.00;;;;;;;;;;10378184;28;20038;-69
2022/01/13 11:23:34;;;;;;;37.28;16.88;;;;;;;;;;10372390;28;20115;-71
2022/01/13 11:28:37;;;;;;;34.85;16.88;;;;;;;;;;10373319;28;20442;-69
2022/01/13 11:33:42;;;;;;;48.13;16.95;;;;;;;;;;10368769;28;20063;-69
2022/01/13 11:38:53;;;;;;;51.70;17.75;;;;;;;;;;10371601;28;20047;-70
2022/01/13 11:44:12;;;;;;;35.97;16.42;;;;;;;;;;10377165;28;20064;-71
2022/01/13 11:49:20;;;;;;;45.38;16.30;;;;;;;;;;10361754;28;20943;-68
2022/01/13 11:54:27;;;;;;;41.17;15.95;;;;;;;;;;10373808;28;20044;-71
2022/01/13 12:00:08;;;;;;;36.60;15.57;;;;;;;;;;10371225;28;20041;-70
2022/01/13 12:05:16;;;;;;;33.35;15.23;;;;;;;;;;10371102;28;20045;-71
2022/01/13 12:10:39;;;;;;;38.75;15.43;;;;;;;;;;10373832;28;20455;-71
2022/01/13 12:15:44;;;;;;;36.25;16.60;;;;;;;;;;10367127;28;20116;-69
2022/01/13 12:21:09;;;;;;;31.73;14.57;;;;;;;;;;10367642;28;20076;-69
2022/01/13 12:26:26;;;;;;;35.25;16.70;;;;;;;;;;10366874;28;20498;-68
2022/01/13 12:31:29;;;;;;;29.42;13.90;;;;;;;;;;10365987;28;20236;-70
2022/01/13 12:36:42;;;;;;;75.82;17.52;;;;;;;;;;10374601;28;20061;-69
2022/01/13 12:41:58;;;;;;;34.22;14.77;;;;;;;;;;10386950;28;20464;-70
2022/01/13 12:47:02;;;;;;;33.40;14.45;;;;;;;;;;10381249;28;20115;-69
2022/01/13 12:52:27;;;;;;;30.45;13.32;;;;;;;;;;10381278;28;20132;-71
2022/01/13 12:57:31;;;;;;;26.88;12.52;;;;;;;;;;10389545;28;20049;-68
2022/01/13 13:02:34;;;;;;;30.25;13.50;;;;;;;;;;10385241;28;20041;-70
2022/01/13 13:07:42;;;;;;;27.33;11.77;;;;;;;;;;10394204;28;20095;-70
2022/01/13 13:12:50;;;;;;;31.08;12.43;;;;;;;;;;10416506;28;20607;-69
2022/01/13 13:17:56;;;;;;;30.35;12.05;;;;;;;;;;10389266;28;20516;-70
2022/01/13 13:23:03;;;;;;;32.42;13.65;;;;;;;;;;10377443;28;20125;-71
2022/01/13 13:28:38;;;;;;;33.35;12.25;;;;;;;;;;10378094;28;20041;-68
2022/01/13 13:33:42;;;;;;;29.50;11.38;;;;;;;;;;10317139;28;20137;-69
2022/01/13 13:38:52;;;;;;;26.02;10.40;;;;;;;;;;10381300;28;20041;-70
2022/01/13 13:43:55;;;;;;;29.00;10.35;;;;;;;;;;10377443;28;20112;-68
2022/01/13 13:48:58;;;;;;;58.70;13.93;;;;;;;;;;10370908;28;20375;-69
2022/01/13 13:54:10;;;;;;;31.80;11.63;;;;;;;;;;10375070;28;20104;-68
2022/01/13 13:59:16;;;;;;;71.85;13.45;;;;;;;;;;10364177;28;20080;-69
2022/01/13 14:04:30;;;;;;;32.60;11.30;;;;;;;;;;10374442;28;20031;-70
2022/01/13 14:09:38;;;;;;;44.88;11.73;;;;;;;;;;10374799;28;20569;-71
2022/01/13 14:14:42;;;;;;;21.75;8.85;;;;;;;;;;10387734;28;20510;-71
2022/01/13 14:19:59;;;;;;;25.42;9.15;;;;;;;;;;10388069;28;20449;-70
2022/01/13 14:25:09;;;;;;;30.95;9.35;;;;;;;;;;10387136;28;20724;-72
2022/01/13 14:30:12;;;;;;;40.47;13.73;;;;;;;;;;10386627;28;20112;-66
2022/01/13 14:35:15;;;;;;;26.55;9.40;;;;;;;;;;10389474;28;20028;-68
2022/01/13 14:40:21;;;;;;;33.78;9.57;;;;;;;;;;10376641;28;20089;-69
2022/01/13 14:45:26;;;;;;;30.25;9.73;;;;;;;;;;10396214;28;20065;-70
2022/01/13 14:50:29;;;;;;;32.70;9.43;;;;;;;;;;10382600;28;20045;-68
2022/01/13 14:55:34;;;;;;;27.67;10.13;;;;;;;;;;10367980;28;20061;-69
2022/01/13 15:00:36;;;;;;;26.23;9.52;;;;;;;;;;10374738;28;20307;-69
2022/01/13 15:05:39;;;;;;;28.77;9.37;;;;;;;;;;10378414;28;20041;-71
2022/01/13 15:10:44;;;;;;;29.40;9.13;;;;;;;;;;10377577;28;20047;-69
2022/01/13 15:15:46;;;;;;;;;;;;;;;;;;10374109;28;20069;-69
2022/01/13 15:20:52;;;;;;;34.40;9.13;;;;;;;;;;10367226;28;19921;-68
2022/01/13 15:25:56;;;;;;;36.90;10.07;;;;;;;;;;10393717;28;20041;-71
2022/01/13 15:30:59;;;;;;;33.00;9.83;;;;;;;;;;10365000;28;20041;-67
2022/01/13 15:36:02;;;;;;;42.10;11.20;;;;;;;;;;10367870;28;20220;-69
2022/01/13 15:41:07;;;;;;;32.73;9.23;;;;;;;;;;10372139;28;20033;-68
2022/01/13 15:46:10;;;;;;;36.10;10.50;;;;;;;;;;10366499;28;20041;-69
2022/01/13 15:51:14;;;;;;;39.50;11.20;;;;;;;;;;10364429;28;20053;-69
2022/01/13 15:56:19;;;;;;;36.43;10.20;;;;;;;;;;10355953;28;20034;-71
2022/01/13 16:01:22;;;;;;;;;;;;;;;;;;10374228;28;20587;-70
2022/01/13 16:06:25;;;;;;;9.03;2.43;;;;;;;;;;10367386;28;19944;-69
2022/01/13 16:11:31;;;;;;;33.57;10.30;;;;;;;;;;10371874;28;20060;-69
2022/01/13 16:16:34;;;;;;;42.50;13.77;;;;;;;;;;10373757;28;20060;-70
2022/01/13 16:21:37;;;;;;;33.20;10.03;;;;;;;;;;10371725;28;20052;-70
2022/01/13 16:26:41;;;;;;;15.47;4.67;;;;;;;;;;10370922;28;20084;-69
2022/01/13 16:31:44;;;;;;;;;;;;;;;;;;10371974;28;20042;-69
2022/01/13 16:36:48;;;;;;;26.70;8.43;;;;;;;;;;10378078;28;19986;-69
2022/01/13 16:41:52;;;;;;;24.77;8.43;;;;;;;;;;10364617;28;20052;-68
2022/01/13 16:46:56;;;;;;;30.40;9.40;;;;;;;;;;10364641;28;20515;-68
2022/01/13 16:51:59;;;;;;;12.77;4.93;;;;;;;;;;10377075;28;20037;-69
2022/01/13 16:57:04;;;;;;;33.97;10.00;;;;;;;;;;10373008;28;20041;-68
2022/01/13 17:02:07;;;;;;;25.93;8.33;;;;;;;;;;10364675;28;20061;-69
2022/01/13 17:07:10;;;;;;;16.67;4.97;;;;;;;;;;10389513;28;20402;-68
2022/01/13 17:12:14;;;;;;;42.57;12.40;;;;;;;;;;10388082;28;20034;-68
2022/01/13 17:17:16;;;;;;;;;;;;;;;;;;10404028;28;20099;-70
2022/01/13 17:22:19;;;;;;;36.10;11.00;;;;;;;;;;10393918;28;19963;-68
2022/01/13 17:27:24;;;;;;;45.67;12.00;;;;;;;;;;10381716;28;21300;-68
2022/01/13 17:32:28;;;;;;;;;;;;;;;;;;10368520;28;20084;-68
2022/01/13 17:37:33;;;;;;;19.75;6.75;;;;;;;;;;10363243;28;19935;-69
2022/01/13 17:42:37;;;;;;;32.40;10.30;;;;;;;;;;10370232;28;20046;-70
2022/01/13 17:47:41;;;;;;;41.20;11.17;;;;;;;;;;10372049;28;20044;-68
2022/01/13 17:52:44;;;;;;;33.87;10.23;;;;;;;;;;10369179;28;20065;-70
2022/01/13 17:57:52;;;;;;;39.73;11.87;;;;;;;;;;10379247;28;20037;-70
2022/01/13 18:02:55;;;;;;;40.78;11.02;;;;;;;;;;10365183;28;20042;-69
2022/01/13 18:07:58;;;;;;;36.83;10.87;;;;;;;;;;10362063;28;20220;-69
2022/01/13 18:13:04;;;;;;;41.37;11.33;;;;;;;;;;10368579;28;20116;-69
2022/01/13 18:18:06;;;;;;;35.60;10.20;;;;;;;;;;10362480;28;20433;-70
2022/01/13 18:23:10;;;;;;;40.93;11.50;;;;;;;;;;10373615;28;20041;-70
2022/01/13 18:28:14;;;;;;;37.63;11.37;;;;;;;;;;10384051;28;20042;-71
2022/01/13 18:33:18;;;;;;;18.27;6.00;;;;;;;;;;10378022;28;20038;-70
2022/01/13 18:38:21;;;;;;;37.63;10.05;;;;;;;;;;10375554;28;20173;-69
2022/01/13 18:43:32;;;;;;;38.33;11.17;;;;;;;;;;10374298;28;20498;-69
2022/01/13 18:48:35;;;;;;;41.40;10.53;;;;;;;;;;10375538;28;20073;-70
2022/01/13 18:53:37;;;;;;;48.47;12.27;;;;;;;;;;10370384;28;20069;-70
2022/01/13 18:58:44;;;;;;;49.53;13.03;;;;;;;;;;10370855;28;20042;-70
2022/01/13 19:03:47;;;;;;;49.93;11.63;;;;;;;;;;10370472;28;20359;-75
2022/01/13 19:08:50;;;;;;;43.17;12.00;;;;;;;;;;10366745;28;20413;-70
2022/01/13 19:13:55;;;;;;;42.17;11.83;;;;;;;;;;10377646;28;20037;-70
2022/01/13 19:19:03;;;;;;;34.07;10.43;;;;;;;;;;10369839;28;20121;-70
2022/01/13 19:24:07;;;;;;;22.37;7.30;;;;;;;;;;10368537;28;20144;-69
2022/01/13 19:29:15;;;;;;;46.83;13.77;;;;;;;;;;10366801;28;20637;-69
2022/01/13 19:34:18;;;;;;;28.57;8.70;;;;;;;;;;10374739;28;20061;-70
2022/01/13 19:39:21;;;;;;;16.93;5.30;;;;;;;;;;10377684;28;20205;-69
2022/01/13 19:44:26;;;;;;;17.43;6.27;;;;;;;;;;10376309;28;20065;-70
2022/01/13 19:49:29;;;;;;;;;;;;;;;;;;10374348;28;20041;-70
2022/01/13 19:54:32;;;;;;;20.53;7.70;;;;;;;;;;10376465;28;19929;-70
2022/01/13 19:59:37;;;;;;;7.10;2.58;;;;;;;;;;10369660;28;20125;-69
2022/01/13 20:04:40;;;;;;;22.67;7.93;;;;;;;;;;10372034;28;20042;-69
2022/01/13 20:09:43;;;;;;;23.57;8.53;;;;;;;;;;10372461;28;20382;-69
2022/01/13 20:14:49;;;;;;;36.80;10.30;;;;;;;;;;10377906;28;20493;-69
2022/01/13 20:19:52;;;;;;;36.47;10.10;;;;;;;;;;10385101;28;20061;-70
2022/01/13 20:24:55;;;;;;;42.73;10.13;;;;;;;;;;10370231;28;20065;-69
2022/01/13 20:29:59;;;;;;;20.97;5.97;;;;;;;;;;10369408;28;20033;-70
2022/01/13 20:35:03;;;;;;;32.42;10.20;;;;;;;;;;10378625;28;20042;-70
2022/01/13 20:40:06;;;;;;;45.67;11.10;;;;;;;;;;10369957;28;20448;-69
2022/01/13 20:45:11;;;;;;;32.10;8.88;;;;;;;;;;10377127;28;20045;-70
2022/01/13 20:50:15;;;;;;;29.83;9.87;;;;;;;;;;10366208;28;20041;-72
2022/01/13 20:55:18;;;;;;;38.50;9.93;;;;;;;;;;10376314;28;20046;-70
2022/01/13 21:00:23;;;;;;;46.83;11.50;;;;;;;;;;10395497;28;20038;-70
2022/01/13 21:05:26;;;;;;;51.60;12.57;;;;;;;;;;10395612;28;20125;-71
2022/01/13 21:10:29;;;;;;;40.73;12.17;;;;;;;;;;10377392;28;20042;-69
2022/01/13 21:15:34;;;;;;;46.40;12.37;;;;;;;;;;10380231;28;20120;-70
2022/01/13 21:20:37;;;;;;;47.53;11.80;;;;;;;;;;10377458;28;20048;-70
2022/01/13 21:25:40;;;;;;;16.27;4.93;;;;;;;;;;10376853;28;20065;-69
2022/01/13 21:30:44;;;;;;;52.83;13.23;;;;;;;;;;10380922;28;20044;-70
2022/01/13 21:35:47;;;;;;;;;;;;;;;;;;10384336;28;20062;-69
2022/01/13 21:40:50;;;;;;;48.20;13.90;;;;;;;;;;10377240;28;19948;-70
2022/01/13 21:45:55;;;;;;;48.23;11.67;;;;;;;;;;10379780;28;20515;-70
2022/01/13 21:50:59;;;;;;;34.50;10.23;;;;;;;;;;10379180;28;20042;-70
2022/01/13 21:56:02;;;;;;;37.77;10.33;;;;;;;;;;10379109;28;20103;-69
2022/01/13 22:01:07;;;;;;;32.03;7.33;;;;;;;;;;10373457;28;20095;-70
2022/01/13 22:06:10;;;;;;;28.13;8.27;;;;;;;;;;10380041;28;20042;-69
2022/01/13 22:11:14;;;;;;;25.50;9.47;;;;;;;;;;10379514;28;20068;-70
2022/01/13 22:16:18;;;;;;;26.10;7.83;;;;;;;;;;10376398;28;20068;-69
2022/01/13 22:21:25;;;;;;;50.30;12.53;;;;;;;;;;10369707;28;20038;-70
2022/01/13 22:26:28;;;;;;;45.97;12.17;;;;;;;;;;10379395;28;20041;-68
2022/01/13 22:31:33;;;;;;;31.63;9.87;;;;;;;;;;10367200;28;20049;-67
2022/01/13 22:36:36;;;;;;;40.17;11.67;;;;;;;;;;10381548;28;20041;-69
2022/01/13 22:41:38;;;;;;;46.57;11.90;;;;;;;;;;10409291;28;20585;-70
2022/01/13 22:46:43;;;;;;;51.50;13.13;;;;;;;;;;10411654;28;20069;-69
2022/01/13 22:51:46;;;;;;;25.17;6.63;;;;;;;;;;10397441;28;20121;-70
2022/01/13 22:56:49;;;;;;;22.87;7.80;;;;;;;;;;10421890;28;20101;-71
2022/01/13 23:01:53;;;;;;;45.00;10.57;;;;;;;;;;10409648;28;20034;-71
2022/01/13 23:06:56;;;;;;;;;;;;;;;;;;10421041;28;20037;-72
2022/01/13 23:12:01;;;;;;;12.10;4.43;;;;;;;;;;10383081;28;19922;-70
2022/01/13 23:22:26;;;;;;;20.23;8.63;;;;;;;;;;10373144;28;20533;-68
2022/01/13 23:27:29;;;;;;;19.67;5.30;;;;;;;;;;10373525;28;20053;-70
2022/01/13 23:32:33;;;;;;;6.80;2.37;;;;;;;;;;10418551;28;20060;-73
2022/01/13 23:37:57;;;;;;;41.53;9.88;;;;;;;;;;10388371;28;20080;-71
2022/01/13 23:43:00;;;;;;;2.80;1.50;;;;;;;;;;10378488;28;20049;-74
2022/01/13 23:48:04;;;;;;;13.50;4.23;;;;;;;;;;10376384;28;20354;-72
2022/01/13 23:53:07;;;;;;;22.90;8.33;;;;;;;;;;10371443;28;20066;-72
2022/01/13 23:58:10;;;;;;;23.73;7.37;;;;;;;;;;10379782;28;20524;-73
